sensor_id;sensor_type;location;lat;lon;timestamp;P1;durP1;ratioP1;P2;durP2;ratioP2
51800;SDS011;37855;53.204;6.568;2023-04-25T00:01:29;21.60;;;3.93;;
51800;SDS011;37855;53.204;6.568;2023-04-25T00:03:55;22.40;;;4.18;;
51800;SDS011;37855;53.204;6.568;2023-04-25T00:06:20;16.67;;;3.10;;
51800;SDS011;37855;53.204;6.568;2023-04-25T00:08:46;20.05;;;3.17;;
51800;SDS011;37855;53.204;6.568;2023-04-25T00:11:12;21.10;;;3.73;;
51800;SDS011;37855;53.204;6.568;2023-04-25T00:13:38;20.73;;;3.90;;
51800;SDS011;37855;53.204;6.568;2023-04-25T00:16:06;15.88;;;3.60;;
51800;SDS011;37855;53.204;6.568;2023-04-25T00:18:32;17.33;;;3.30;;
51800;SDS011;37855;53.204;6.568;2023-04-25T00:20:58;21.85;;;3.40;;
51800;SDS011;37855;53.204;6.568;2023-04-25T00:23:24;21.27;;;4.23;;
51800;SDS011;37855;53.204;6.568;2023-04-25T00:25:50;16.23;;;3.20;;
51800;SDS011;37855;53.204;6.568;2023-04-25T00:28:18;21.25;;;3.95;;
51800;SDS011;37855;53.204;6.568;2023-04-25T00:30:44;14.23;;;3.87;;
51800;SDS011;37855;53.204;6.568;2023-04-25T00:33:09;16.67;;;3.42;;
51800;SDS011;37855;53.204;6.568;2023-04-25T00:35:35;14.43;;;3.40;;
51800;SDS011;37855;53.204;6.568;2023-04-25T00:38:01;17.35;;;3.38;;
51800;SDS011;37855;53.204;6.568;2023-04-25T00:40:29;14.23;;;2.70;;
51800;SDS011;37855;53.204;6.568;2023-04-25T00:42:57;19.05;;;3.08;;
51800;SDS011;37855;53.204;6.568;2023-04-25T00:45:26;13.57;;;2.97;;
51800;SDS011;37855;53.204;6.568;2023-04-25T00:47:54;13.60;;;2.85;;
51800;SDS011;37855;53.204;6.568;2023-04-25T00:50:20;14.18;;;3.15;;
51800;SDS011;37855;53.204;6.568;2023-04-25T00:52:46;13.40;;;2.50;;
51800;SDS011;37855;53.204;6.568;2023-04-25T00:55:12;11.65;;;2.30;;
51800;SDS011;37855;53.204;6.568;2023-04-25T00:57:38;10.95;;;2.85;;
51800;SDS011;37855;53.204;6.568;2023-04-25T01:00:05;19.25;;;2.60;;
51800;SDS011;37855;53.204;6.568;2023-04-25T01:02:32;13.07;;;2.83;;
51800;SDS011;37855;53.204;6.568;2023-04-25T01:05:00;12.70;;;2.75;;
51800;SDS011;37855;53.204;6.568;2023-04-25T01:07:26;13.98;;;3.35;;
51800;SDS011;37855;53.204;6.568;2023-04-25T01:09:52;14.15;;;3.03;;
51800;SDS011;37855;53.204;6.568;2023-04-25T01:12:18;14.37;;;2.47;;
51800;SDS011;37855;53.204;6.568;2023-04-25T01:14:44;19.98;;;2.72;;
51800;SDS011;37855;53.204;6.568;2023-04-25T01:17:10;13.18;;;2.53;;
51800;SDS011;37855;53.204;6.568;2023-04-25T01:19:36;13.13;;;2.30;;
51800;SDS011;37855;53.204;6.568;2023-04-25T01:22:02;10.15;;;2.13;;
51800;SDS011;37855;53.204;6.568;2023-04-25T01:24:29;13.18;;;2.00;;
51800;SDS011;37855;53.204;6.568;2023-04-25T01:26:59;9.18;;;2.45;;
51800;SDS011;37855;53.204;6.568;2023-04-25T01:29:26;14.20;;;2.30;;
51800;SDS011;37855;53.204;6.568;2023-04-25T01:31:53;13.90;;;2.77;;
51800;SDS011;37855;53.204;6.568;2023-04-25T01:34:19;12.30;;;2.33;;
51800;SDS011;37855;53.204;6.568;2023-04-25T01:36:46;13.15;;;2.50;;
51800;SDS011;37855;53.204;6.568;2023-04-25T01:39:14;13.52;;;2.10;;
51800;SDS011;37855;53.204;6.568;2023-04-25T01:41:40;18.35;;;2.60;;
51800;SDS011;37855;53.204;6.568;2023-04-25T01:44:06;13.97;;;2.40;;
51800;SDS011;37855;53.204;6.568;2023-04-25T01:46:33;12.13;;;2.55;;
51800;SDS011;37855;53.204;6.568;2023-04-25T01:48:59;14.80;;;2.58;;
51800;SDS011;37855;53.204;6.568;2023-04-25T01:51:24;16.43;;;3.13;;
51800;SDS011;37855;53.204;6.568;2023-04-25T01:53:50;13.32;;;2.20;;
51800;SDS011;37855;53.204;6.568;2023-04-25T01:56:17;14.83;;;2.60;;
51800;SDS011;37855;53.204;6.568;2023-04-25T01:58:43;8.80;;;2.20;;
51800;SDS011;37855;53.204;6.568;2023-04-25T02:01:09;15.98;;;2.60;;
51800;SDS011;37855;53.204;6.568;2023-04-25T02:03:35;13.98;;;2.33;;
51800;SDS011;37855;53.204;6.568;2023-04-25T02:06:01;13.27;;;2.40;;
51800;SDS011;37855;53.204;6.568;2023-04-25T02:08:27;21.17;;;2.90;;
51800;SDS011;37855;53.204;6.568;2023-04-25T02:10:52;12.70;;;2.70;;
51800;SDS011;37855;53.204;6.568;2023-04-25T02:13:18;12.75;;;2.83;;
51800;SDS011;37855;53.204;6.568;2023-04-25T02:15:47;19.92;;;2.65;;
51800;SDS011;37855;53.204;6.568;2023-04-25T02:18:12;10.63;;;2.37;;
51800;SDS011;37855;53.204;6.568;2023-04-25T02:20:41;13.13;;;2.55;;
51800;SDS011;37855;53.204;6.568;2023-04-25T02:23:07;11.15;;;2.38;;
51800;SDS011;37855;53.204;6.568;2023-04-25T02:25:32;12.37;;;2.10;;
51800;SDS011;37855;53.204;6.568;2023-04-25T02:27:58;20.25;;;3.08;;
51800;SDS011;37855;53.204;6.568;2023-04-25T02:30:24;13.47;;;3.00;;
51800;SDS011;37855;53.204;6.568;2023-04-25T02:32:49;11.10;;;2.30;;
51800;SDS011;37855;53.204;6.568;2023-04-25T02:35:15;12.15;;;2.97;;
51800;SDS011;37855;53.204;6.568;2023-04-25T02:37:41;15.17;;;2.70;;
51800;SDS011;37855;53.204;6.568;2023-04-25T02:40:08;13.27;;;2.47;;
51800;SDS011;37855;53.204;6.568;2023-04-25T02:42:34;12.32;;;2.72;;
51800;SDS011;37855;53.204;6.568;2023-04-25T02:45:00;15.45;;;2.88;;
51800;SDS011;37855;53.204;6.568;2023-04-25T02:47:26;13.70;;;2.75;;
51800;SDS011;37855;53.204;6.568;2023-04-25T02:49:51;10.90;;;2.50;;
51800;SDS011;37855;53.204;6.568;2023-04-25T02:52:17;12.30;;;2.37;;
51800;SDS011;37855;53.204;6.568;2023-04-25T02:54:43;15.80;;;2.50;;
51800;SDS011;37855;53.204;6.568;2023-04-25T02:57:08;10.87;;;2.50;;
51800;SDS011;37855;53.204;6.568;2023-04-25T02:59:34;14.68;;;2.78;;
51800;SDS011;37855;53.204;6.568;2023-04-25T03:02:00;9.77;;;1.92;;
51800;SDS011;37855;53.204;6.568;2023-04-25T03:04:26;16.83;;;2.87;;
51800;SDS011;37855;53.204;6.568;2023-04-25T03:06:52;15.18;;;2.35;;
51800;SDS011;37855;53.204;6.568;2023-04-25T03:09:18;12.77;;;2.30;;
51800;SDS011;37855;53.204;6.568;2023-04-25T03:11:44;10.40;;;2.40;;
51800;SDS011;37855;53.204;6.568;2023-04-25T03:14:10;10.82;;;2.10;;
51800;SDS011;37855;53.204;6.568;2023-04-25T03:16:37;13.45;;;3.05;;
51800;SDS011;37855;53.204;6.568;2023-04-25T03:19:03;11.93;;;2.50;;
51800;SDS011;37855;53.204;6.568;2023-04-25T03:21:29;12.53;;;2.17;;
51800;SDS011;37855;53.204;6.568;2023-04-25T03:23:57;9.20;;;2.00;;
51800;SDS011;37855;53.204;6.568;2023-04-25T03:26:23;14.32;;;2.42;;
51800;SDS011;37855;53.204;6.568;2023-04-25T03:28:49;12.60;;;2.13;;
51800;SDS011;37855;53.204;6.568;2023-04-25T03:31:14;13.77;;;2.33;;
51800;SDS011;37855;53.204;6.568;2023-04-25T03:33:40;14.35;;;2.25;;
51800;SDS011;37855;53.204;6.568;2023-04-25T03:36:06;13.07;;;3.00;;
51800;SDS011;37855;53.204;6.568;2023-04-25T03:38:32;12.73;;;2.65;;
51800;SDS011;37855;53.204;6.568;2023-04-25T03:40:57;15.83;;;2.30;;
51800;SDS011;37855;53.204;6.568;2023-04-25T03:43:23;12.73;;;2.70;;
51800;SDS011;37855;53.204;6.568;2023-04-25T03:45:49;13.23;;;2.73;;
51800;SDS011;37855;53.204;6.568;2023-04-25T03:48:14;11.70;;;2.40;;
51800;SDS011;37855;53.204;6.568;2023-04-25T03:50:40;9.60;;;1.90;;
51800;SDS011;37855;53.204;6.568;2023-04-25T03:53:06;10.60;;;2.30;;
51800;SDS011;37855;53.204;6.568;2023-04-25T03:55:31;12.53;;;2.43;;
51800;SDS011;37855;53.204;6.568;2023-04-25T03:57:57;11.85;;;2.72;;
51800;SDS011;37855;53.204;6.568;2023-04-25T04:00:24;12.35;;;2.10;;
51800;SDS011;37855;53.204;6.568;2023-04-25T04:02:50;11.23;;;2.03;;
51800;SDS011;37855;53.204;6.568;2023-04-25T04:05:18;9.68;;;2.13;;
51800;SDS011;37855;53.204;6.568;2023-04-25T04:07:44;8.20;;;2.70;;
51800;SDS011;37855;53.204;6.568;2023-04-25T04:10:10;10.43;;;2.43;;
51800;SDS011;37855;53.204;6.568;2023-04-25T04:12:36;10.73;;;2.75;;
51800;SDS011;37855;53.204;6.568;2023-04-25T04:15:05;11.77;;;2.50;;
51800;SDS011;37855;53.204;6.568;2023-04-25T04:17:31;14.13;;;2.17;;
51800;SDS011;37855;53.204;6.568;2023-04-25T04:19:57;10.70;;;2.08;;
51800;SDS011;37855;53.204;6.568;2023-04-25T04:22:23;10.00;;;2.37;;
51800;SDS011;37855;53.204;6.568;2023-04-25T04:24:49;14.15;;;2.38;;
51800;SDS011;37855;53.204;6.568;2023-04-25T04:27:15;10.98;;;2.42;;
51800;SDS011;37855;53.204;6.568;2023-04-25T04:29:44;14.80;;;2.67;;
51800;SDS011;37855;53.204;6.568;2023-04-25T04:32:11;14.03;;;3.07;;
51800;SDS011;37855;53.204;6.568;2023-04-25T04:34:38;12.38;;;2.40;;
51800;SDS011;37855;53.204;6.568;2023-04-25T04:37:04;15.15;;;2.50;;
51800;SDS011;37855;53.204;6.568;2023-04-25T04:39:31;12.40;;;2.80;;
51800;SDS011;37855;53.204;6.568;2023-04-25T04:42:01;12.80;;;2.50;;
51800;SDS011;37855;53.204;6.568;2023-04-25T04:44:27;12.15;;;2.20;;
51800;SDS011;37855;53.204;6.568;2023-04-25T04:46:53;13.32;;;2.55;;
51800;SDS011;37855;53.204;6.568;2023-04-25T04:49:20;11.27;;;2.45;;
51800;SDS011;37855;53.204;6.568;2023-04-25T04:51:46;14.82;;;2.40;;
51800;SDS011;37855;53.204;6.568;2023-04-25T04:54:12;12.77;;;2.30;;
51800;SDS011;37855;53.204;6.568;2023-04-25T04:56:38;15.90;;;2.67;;
51800;SDS011;37855;53.204;6.568;2023-04-25T04:59:04;11.07;;;2.28;;
51800;SDS011;37855;53.204;6.568;2023-04-25T05:01:29;11.97;;;2.60;;
51800;SDS011;37855;53.204;6.568;2023-04-25T05:03:55;14.07;;;2.67;;
51800;SDS011;37855;53.204;6.568;2023-04-25T05:06:25;12.73;;;2.40;;
51800;SDS011;37855;53.204;6.568;2023-04-25T05:08:52;10.10;;;2.58;;
51800;SDS011;37855;53.204;6.568;2023-04-25T05:11:18;10.90;;;2.17;;
51800;SDS011;37855;53.204;6.568;2023-04-25T05:13:44;8.07;;;2.50;;
51800;SDS011;37855;53.204;6.568;2023-04-25T05:16:10;10.70;;;2.08;;
51800;SDS011;37855;53.204;6.568;2023-04-25T05:18:37;8.43;;;2.17;;
51800;SDS011;37855;53.204;6.568;2023-04-25T05:21:02;10.45;;;2.30;;
51800;SDS011;37855;53.204;6.568;2023-04-25T05:23:28;7.45;;;2.10;;
51800;SDS011;37855;53.204;6.568;2023-04-25T05:25:56;12.20;;;2.08;;
51800;SDS011;37855;53.204;6.568;2023-04-25T05:28:21;5.03;;;2.03;;
51800;SDS011;37855;53.204;6.568;2023-04-25T05:30:47;6.55;;;1.85;;
51800;SDS011;37855;53.204;6.568;2023-04-25T05:33:13;6.03;;;2.00;;
51800;SDS011;37855;53.204;6.568;2023-04-25T05:35:39;7.23;;;2.33;;
51800;SDS011;37855;53.204;6.568;2023-04-25T05:38:05;5.68;;;1.75;;
51800;SDS011;37855;53.204;6.568;2023-04-25T05:40:30;9.70;;;1.83;;
51800;SDS011;37855;53.204;6.568;2023-04-25T05:42:56;7.50;;;2.10;;
51800;SDS011;37855;53.204;6.568;2023-04-25T05:45:22;7.80;;;2.40;;
51800;SDS011;37855;53.204;6.568;2023-04-25T05:47:48;8.43;;;2.10;;
51800;SDS011;37855;53.204;6.568;2023-04-25T05:50:13;12.30;;;2.30;;
51800;SDS011;37855;53.204;6.568;2023-04-25T05:52:39;8.90;;;2.17;;
51800;SDS011;37855;53.204;6.568;2023-04-25T05:55:05;11.17;;;2.30;;
51800;SDS011;37855;53.204;6.568;2023-04-25T05:57:31;8.05;;;1.95;;
51800;SDS011;37855;53.204;6.568;2023-04-25T05:59:57;8.37;;;2.30;;
51800;SDS011;37855;53.204;6.568;2023-04-25T06:02:25;6.90;;;2.20;;
51800;SDS011;37855;53.204;6.568;2023-04-25T06:04:51;5.63;;;1.90;;
51800;SDS011;37855;53.204;6.568;2023-04-25T06:07:17;7.10;;;1.77;;
51800;SDS011;37855;53.204;6.568;2023-04-25T06:09:44;7.72;;;1.65;;
51800;SDS011;37855;53.204;6.568;2023-04-25T06:12:10;6.70;;;1.90;;
51800;SDS011;37855;53.204;6.568;2023-04-25T06:14:36;6.50;;;1.67;;
51800;SDS011;37855;53.204;6.568;2023-04-25T06:17:02;7.57;;;1.98;;
51800;SDS011;37855;53.204;6.568;2023-04-25T06:19:33;7.93;;;2.20;;
51800;SDS011;37855;53.204;6.568;2023-04-25T06:22:00;9.70;;;2.13;;
51800;SDS011;37855;53.204;6.568;2023-04-25T06:24:26;6.47;;;1.98;;
51800;SDS011;37855;53.204;6.568;2023-04-25T06:26:52;9.97;;;1.93;;
51800;SDS011;37855;53.204;6.568;2023-04-25T06:29:17;9.35;;;2.03;;
51800;SDS011;37855;53.204;6.568;2023-04-25T06:31:43;8.13;;;1.77;;
51800;SDS011;37855;53.204;6.568;2023-04-25T06:34:09;10.20;;;2.55;;
51800;SDS011;37855;53.204;6.568;2023-04-25T06:36:34;6.47;;;2.17;;
51800;SDS011;37855;53.204;6.568;2023-04-25T06:39:03;8.93;;;1.88;;
51800;SDS011;37855;53.204;6.568;2023-04-25T06:41:28;13.00;;;2.50;;
51800;SDS011;37855;53.204;6.568;2023-04-25T06:43:54;7.40;;;1.83;;
51800;SDS011;37855;53.204;6.568;2023-04-25T06:46:20;11.83;;;2.13;;
51800;SDS011;37855;53.204;6.568;2023-04-25T06:48:46;8.13;;;1.95;;
51800;SDS011;37855;53.204;6.568;2023-04-25T06:51:11;8.50;;;2.00;;
51800;SDS011;37855;53.204;6.568;2023-04-25T06:53:38;10.25;;;2.20;;
51800;SDS011;37855;53.204;6.568;2023-04-25T06:56:05;7.18;;;1.80;;
51800;SDS011;37855;53.204;6.568;2023-04-25T06:58:31;14.68;;;3.05;;
51800;SDS011;37855;53.204;6.568;2023-04-25T07:00:56;10.37;;;2.17;;
51800;SDS011;37855;53.204;6.568;2023-04-25T07:03:22;6.47;;;1.83;;
51800;SDS011;37855;53.204;6.568;2023-04-25T07:05:48;11.32;;;2.78;;
51800;SDS011;37855;53.204;6.568;2023-04-25T07:08:15;10.30;;;1.97;;
51800;SDS011;37855;53.204;6.568;2023-04-25T07:10:40;5.03;;;1.77;;
51800;SDS011;37855;53.204;6.568;2023-04-25T07:13:06;9.83;;;2.37;;
51800;SDS011;37855;53.204;6.568;2023-04-25T07:15:32;9.53;;;2.20;;
51800;SDS011;37855;53.204;6.568;2023-04-25T07:17:58;5.93;;;1.95;;
51800;SDS011;37855;53.204;6.568;2023-04-25T07:20:24;7.28;;;2.03;;
51800;SDS011;37855;53.204;6.568;2023-04-25T07:22:50;7.43;;;1.77;;
51800;SDS011;37855;53.204;6.568;2023-04-25T07:25:16;7.53;;;2.33;;
51800;SDS011;37855;53.204;6.568;2023-04-25T07:27:42;8.40;;;1.98;;
51800;SDS011;37855;53.204;6.568;2023-04-25T07:30:08;7.50;;;1.90;;
51800;SDS011;37855;53.204;6.568;2023-04-25T07:32:34;6.35;;;1.90;;
51800;SDS011;37855;53.204;6.568;2023-04-25T07:35:00;6.93;;;2.05;;
51800;SDS011;37855;53.204;6.568;2023-04-25T07:37:26;8.57;;;2.53;;
51800;SDS011;37855;53.204;6.568;2023-04-25T07:39:52;8.48;;;1.88;;
51800;SDS011;37855;53.204;6.568;2023-04-25T07:42:18;10.03;;;1.70;;
51800;SDS011;37855;53.204;6.568;2023-04-25T07:44:43;9.55;;;1.63;;
51800;SDS011;37855;53.204;6.568;2023-04-25T07:47:09;6.83;;;1.90;;
51800;SDS011;37855;53.204;6.568;2023-04-25T07:49:35;5.13;;;1.50;;
51800;SDS011;37855;53.204;6.568;2023-04-25T07:52:02;8.52;;;1.73;;
51800;SDS011;37855;53.204;6.568;2023-04-25T07:54:32;5.88;;;1.67;;
51800;SDS011;37855;53.204;6.568;2023-04-25T07:56:57;4.00;;;1.37;;
51800;SDS011;37855;53.204;6.568;2023-04-25T07:59:23;7.63;;;1.60;;
51800;SDS011;37855;53.204;6.568;2023-04-25T08:01:49;6.82;;;1.70;;
51800;SDS011;37855;53.204;6.568;2023-04-25T08:04:15;7.00;;;1.90;;
51800;SDS011;37855;53.204;6.568;2023-04-25T08:06:42;7.30;;;1.73;;
51800;SDS011;37855;53.204;6.568;2023-04-25T08:09:08;7.20;;;1.75;;
51800;SDS011;37855;53.204;6.568;2023-04-25T08:11:34;6.78;;;1.50;;
51800;SDS011;37855;53.204;6.568;2023-04-25T08:14:01;5.70;;;1.58;;
51800;SDS011;37855;53.204;6.568;2023-04-25T08:16:26;3.93;;;1.33;;
51800;SDS011;37855;53.204;6.568;2023-04-25T08:18:52;6.72;;;1.60;;
51800;SDS011;37855;53.204;6.568;2023-04-25T08:21:18;6.00;;;1.33;;
51800;SDS011;37855;53.204;6.568;2023-04-25T08:23:44;9.07;;;1.80;;
51800;SDS011;37855;53.204;6.568;2023-04-25T08:26:10;4.07;;;1.33;;
51800;SDS011;37855;53.204;6.568;2023-04-25T08:28:36;5.60;;;1.40;;
51800;SDS011;37855;53.204;6.568;2023-04-25T08:31:04;3.97;;;1.50;;
51800;SDS011;37855;53.204;6.568;2023-04-25T08:33:32;5.88;;;1.63;;
51800;SDS011;37855;53.204;6.568;2023-04-25T08:35:58;5.07;;;1.75;;
51800;SDS011;37855;53.204;6.568;2023-04-25T08:38:24;3.47;;;1.30;;
51800;SDS011;37855;53.204;6.568;2023-04-25T08:40:50;4.70;;;1.40;;
51800;SDS011;37855;53.204;6.568;2023-04-25T08:43:19;3.60;;;1.40;;
51800;SDS011;37855;53.204;6.568;2023-04-25T08:45:45;5.93;;;1.25;;
51800;SDS011;37855;53.204;6.568;2023-04-25T08:48:12;8.95;;;1.70;;
51800;SDS011;37855;53.204;6.568;2023-04-25T08:50:40;7.20;;;1.50;;
51800;SDS011;37855;53.204;6.568;2023-04-25T08:53:16;6.18;;;1.70;;
51800;SDS011;37855;53.204;6.568;2023-04-25T08:55:45;6.97;;;1.97;;
51800;SDS011;37855;53.204;6.568;2023-04-25T08:58:11;5.93;;;2.00;;
51800;SDS011;37855;53.204;6.568;2023-04-25T09:00:37;9.13;;;2.03;;
51800;SDS011;37855;53.204;6.568;2023-04-25T09:03:03;6.07;;;1.88;;
51800;SDS011;37855;53.204;6.568;2023-04-25T09:05:30;6.85;;;1.92;;
51800;SDS011;37855;53.204;6.568;2023-04-25T09:07:57;7.33;;;1.80;;
51800;SDS011;37855;53.204;6.568;2023-04-25T09:10:23;6.72;;;1.55;;
51800;SDS011;37855;53.204;6.568;2023-04-25T09:13:01;10.27;;;1.73;;
51800;SDS011;37855;53.204;6.568;2023-04-25T09:15:51;4.35;;;1.55;;
51800;SDS011;37855;53.204;6.568;2023-04-25T09:18:22;7.07;;;2.08;;
51800;SDS011;37855;53.204;6.568;2023-04-25T09:20:50;6.85;;;1.50;;
51800;SDS011;37855;53.204;6.568;2023-04-25T09:23:18;7.00;;;1.90;;
51800;SDS011;37855;53.204;6.568;2023-04-25T09:25:47;9.63;;;2.10;;
51800;SDS011;37855;53.204;6.568;2023-04-25T09:28:24;7.05;;;1.50;;
51800;SDS011;37855;53.204;6.568;2023-04-25T09:30:54;7.90;;;1.70;;
51800;SDS011;37855;53.204;6.568;2023-04-25T09:33:27;6.93;;;1.67;;
51800;SDS011;37855;53.204;6.568;2023-04-25T09:36:01;5.93;;;1.75;;
51800;SDS011;37855;53.204;6.568;2023-04-25T09:38:42;6.63;;;1.67;;
51800;SDS011;37855;53.204;6.568;2023-04-25T09:41:10;5.60;;;1.85;;
51800;SDS011;37855;53.204;6.568;2023-04-25T09:43:36;6.55;;;1.92;;
51800;SDS011;37855;53.204;6.568;2023-04-25T09:46:10;9.65;;;2.20;;
51800;SDS011;37855;53.204;6.568;2023-04-25T09:48:38;5.85;;;1.77;;
51800;SDS011;37855;53.204;6.568;2023-04-25T09:51:12;7.43;;;1.53;;
51800;SDS011;37855;53.204;6.568;2023-04-25T09:53:39;10.82;;;1.80;;
51800;SDS011;37855;53.204;6.568;2023-04-25T09:56:08;7.50;;;1.80;;
51800;SDS011;37855;53.204;6.568;2023-04-25T09:58:35;9.25;;;2.05;;
51800;SDS011;37855;53.204;6.568;2023-04-25T10:01:03;11.27;;;1.90;;
51800;SDS011;37855;53.204;6.568;2023-04-25T10:03:31;15.37;;;2.10;;
51800;SDS011;37855;53.204;6.568;2023-04-25T10:06:02;7.28;;;1.75;;
51800;SDS011;37855;53.204;6.568;2023-04-25T10:08:34;9.55;;;2.28;;
51800;SDS011;37855;53.204;6.568;2023-04-25T10:11:02;9.13;;;2.33;;
51800;SDS011;37855;53.204;6.568;2023-04-25T10:13:30;16.05;;;2.55;;
51800;SDS011;37855;53.204;6.568;2023-04-25T10:16:00;9.03;;;2.07;;
51800;SDS011;37855;53.204;6.568;2023-04-25T10:18:28;12.07;;;1.73;;
51800;SDS011;37855;53.204;6.568;2023-04-25T10:20:55;8.55;;;1.88;;
51800;SDS011;37855;53.204;6.568;2023-04-25T10:23:22;8.48;;;1.75;;
51800;SDS011;37855;53.204;6.568;2023-04-25T10:25:49;11.13;;;2.38;;
51800;SDS011;37855;53.204;6.568;2023-04-25T10:28:16;10.53;;;2.17;;
51800;SDS011;37855;53.204;6.568;2023-04-25T10:31:04;11.23;;;2.10;;
51800;SDS011;37855;53.204;6.568;2023-04-25T10:33:33;11.55;;;2.25;;
51800;SDS011;37855;53.204;6.568;2023-04-25T10:36:21;11.40;;;1.73;;
51800;SDS011;37855;53.204;6.568;2023-04-25T10:38:47;11.18;;;1.88;;
51800;SDS011;37855;53.204;6.568;2023-04-25T10:41:15;12.17;;;2.13;;
51800;SDS011;37855;53.204;6.568;2023-04-25T10:43:44;9.25;;;2.10;;
51800;SDS011;37855;53.204;6.568;2023-04-25T10:46:22;11.63;;;2.42;;
51800;SDS011;37855;53.204;6.568;2023-04-25T10:48:49;6.60;;;1.77;;
51800;SDS011;37855;53.204;6.568;2023-04-25T10:51:37;7.03;;;1.80;;
51800;SDS011;37855;53.204;6.568;2023-04-25T10:54:03;8.43;;;1.60;;
51800;SDS011;37855;53.204;6.568;2023-04-25T10:56:31;7.05;;;1.88;;
51800;SDS011;37855;53.204;6.568;2023-04-25T10:59:08;8.40;;;1.83;;
51800;SDS011;37855;53.204;6.568;2023-04-25T11:01:48;6.85;;;2.00;;
51800;SDS011;37855;53.204;6.568;2023-04-25T11:04:29;7.80;;;1.90;;
51800;SDS011;37855;53.204;6.568;2023-04-25T11:09:38;7.25;;;1.90;;
51800;SDS011;37855;53.204;6.568;2023-04-25T11:12:06;8.38;;;1.92;;
51800;SDS011;37855;53.204;6.568;2023-04-25T11:14:33;7.15;;;1.58;;
51800;SDS011;37855;53.204;6.568;2023-04-25T11:16:59;6.65;;;2.13;;
51800;SDS011;37855;53.204;6.568;2023-04-25T11:19:27;6.13;;;1.67;;
51800;SDS011;37855;53.204;6.568;2023-04-25T11:21:56;10.77;;;2.15;;
51800;SDS011;37855;53.204;6.568;2023-04-25T11:24:30;9.32;;;2.20;;
51800;SDS011;37855;53.204;6.568;2023-04-25T11:27:00;8.13;;;1.70;;
51800;SDS011;37855;53.204;6.568;2023-04-25T11:29:31;6.70;;;1.75;;
51800;SDS011;37855;53.204;6.568;2023-04-25T11:31:58;9.00;;;1.90;;
51800;SDS011;37855;53.204;6.568;2023-04-25T11:34:25;8.93;;;1.98;;
51800;SDS011;37855;53.204;6.568;2023-04-25T11:36:51;5.82;;;1.65;;
51800;SDS011;37855;53.204;6.568;2023-04-25T11:39:21;6.30;;;1.75;;
51800;SDS011;37855;53.204;6.568;2023-04-25T11:41:47;10.40;;;2.10;;
51800;SDS011;37855;53.204;6.568;2023-04-25T11:44:15;8.47;;;1.87;;
51800;SDS011;37855;53.204;6.568;2023-04-25T11:46:44;5.53;;;2.00;;
51800;SDS011;37855;53.204;6.568;2023-04-25T11:49:10;10.20;;;1.95;;
51800;SDS011;37855;53.204;6.568;2023-04-25T11:51:40;7.60;;;2.00;;
51800;SDS011;37855;53.204;6.568;2023-04-25T11:54:12;4.63;;;1.70;;
51800;SDS011;37855;53.204;6.568;2023-04-25T11:56:42;11.17;;;1.90;;
51800;SDS011;37855;53.204;6.568;2023-04-25T11:59:09;8.48;;;1.50;;
51800;SDS011;37855;53.204;6.568;2023-04-25T12:01:36;9.07;;;2.00;;
51800;SDS011;37855;53.204;6.568;2023-04-25T12:04:10;4.72;;;1.55;;
51800;SDS011;37855;53.204;6.568;2023-04-25T12:06:42;6.35;;;1.85;;
51800;SDS011;37855;53.204;6.568;2023-04-25T12:09:12;12.47;;;2.37;;
51800;SDS011;37855;53.204;6.568;2023-04-25T12:11:41;6.65;;;1.65;;
51800;SDS011;37855;53.204;6.568;2023-04-25T12:14:11;7.07;;;1.85;;
51800;SDS011;37855;53.204;6.568;2023-04-25T12:16:45;9.23;;;1.98;;
51800;SDS011;37855;53.204;6.568;2023-04-25T12:19:15;7.13;;;1.70;;
51800;SDS011;37855;53.204;6.568;2023-04-25T12:21:42;7.07;;;2.10;;
51800;SDS011;37855;53.204;6.568;2023-04-25T12:24:12;12.32;;;2.60;;
51800;SDS011;37855;53.204;6.568;2023-04-25T12:27:00;6.22;;;1.58;;
51800;SDS011;37855;53.204;6.568;2023-04-25T12:29:30;10.25;;;2.15;;
51800;SDS011;37855;53.204;6.568;2023-04-25T12:31:58;7.80;;;1.80;;
51800;SDS011;37855;53.204;6.568;2023-04-25T12:34:24;11.70;;;2.40;;
51800;SDS011;37855;53.204;6.568;2023-04-25T12:36:51;10.07;;;2.50;;
51800;SDS011;37855;53.204;6.568;2023-04-25T12:39:17;9.95;;;1.92;;
51800;SDS011;37855;53.204;6.568;2023-04-25T12:41:44;6.30;;;1.58;;
51800;SDS011;37855;53.204;6.568;2023-04-25T12:44:14;8.35;;;2.00;;
51800;SDS011;37855;53.204;6.568;2023-04-25T12:46:40;7.43;;;2.00;;
51800;SDS011;37855;53.204;6.568;2023-04-25T12:49:06;6.30;;;1.77;;
51800;SDS011;37855;53.204;6.568;2023-04-25T12:51:36;8.32;;;1.77;;
51800;SDS011;37855;53.204;6.568;2023-04-25T12:54:02;8.43;;;1.60;;
51800;SDS011;37855;53.204;6.568;2023-04-25T12:56:29;8.93;;;1.65;;
51800;SDS011;37855;53.204;6.568;2023-04-25T12:58:56;7.97;;;1.87;;
51800;SDS011;37855;53.204;6.568;2023-04-25T13:01:23;6.65;;;1.90;;
51800;SDS011;37855;53.204;6.568;2023-04-25T13:03:49;7.07;;;1.70;;
51800;SDS011;37855;53.204;6.568;2023-04-25T13:06:16;7.88;;;1.70;;
51800;SDS011;37855;53.204;6.568;2023-04-25T13:08:42;11.20;;;1.80;;
51800;SDS011;37855;53.204;6.568;2023-04-25T13:11:08;7.87;;;1.67;;
51800;SDS011;37855;53.204;6.568;2023-04-25T13:13:35;10.00;;;1.88;;
51800;SDS011;37855;53.204;6.568;2023-04-25T13:16:01;8.73;;;1.90;;
51800;SDS011;37855;53.204;6.568;2023-04-25T13:18:28;8.50;;;2.15;;
51800;SDS011;37855;53.204;6.568;2023-04-25T13:20:55;6.50;;;2.20;;
51800;SDS011;37855;53.204;6.568;2023-04-25T13:23:25;7.50;;;1.73;;
51800;SDS011;37855;53.204;6.568;2023-04-25T13:25:53;10.70;;;2.00;;
51800;SDS011;37855;53.204;6.568;2023-04-25T13:28:20;6.80;;;2.10;;
51800;SDS011;37855;53.204;6.568;2023-04-25T13:30:46;8.77;;;1.90;;
51800;SDS011;37855;53.204;6.568;2023-04-25T13:33:13;10.18;;;2.15;;
51800;SDS011;37855;53.204;6.568;2023-04-25T13:35:39;7.07;;;1.80;;
51800;SDS011;37855;53.204;6.568;2023-04-25T13:38:06;8.48;;;2.08;;
51800;SDS011;37855;53.204;6.568;2023-04-25T13:40:32;9.50;;;2.53;;
51800;SDS011;37855;53.204;6.568;2023-04-25T13:42:58;8.75;;;2.30;;
51800;SDS011;37855;53.204;6.568;2023-04-25T13:45:24;8.17;;;1.73;;
51800;SDS011;37855;53.204;6.568;2023-04-25T13:47:50;13.55;;;2.45;;
51800;SDS011;37855;53.204;6.568;2023-04-25T13:50:15;8.23;;;2.15;;
51800;SDS011;37855;53.204;6.568;2023-04-25T13:52:42;5.57;;;1.60;;
51800;SDS011;37855;53.204;6.568;2023-04-25T13:55:08;4.93;;;1.60;;
51800;SDS011;37855;53.204;6.568;2023-04-25T13:57:35;12.95;;;1.75;;
51800;SDS011;37855;53.204;6.568;2023-04-25T14:00:02;4.85;;;1.55;;
51800;SDS011;37855;53.204;6.568;2023-04-25T14:02:36;5.97;;;1.80;;
51800;SDS011;37855;53.204;6.568;2023-04-25T14:05:03;7.57;;;1.70;;
51800;SDS011;37855;53.204;6.568;2023-04-25T14:07:30;10.55;;;2.08;;
51800;SDS011;37855;53.204;6.568;2023-04-25T14:09:56;8.05;;;2.03;;
51800;SDS011;37855;53.204;6.568;2023-04-25T14:12:26;10.30;;;2.22;;
51800;SDS011;37855;53.204;6.568;2023-04-25T14:14:53;11.70;;;1.80;;
51800;SDS011;37855;53.204;6.568;2023-04-25T14:17:19;8.50;;;2.05;;
51800;SDS011;37855;53.204;6.568;2023-04-25T14:19:44;11.48;;;2.10;;
51800;SDS011;37855;53.204;6.568;2023-04-25T14:22:10;8.73;;;2.08;;
51800;SDS011;37855;53.204;6.568;2023-04-25T14:24:36;7.10;;;1.70;;
51800;SDS011;37855;53.204;6.568;2023-04-25T14:27:03;5.80;;;1.95;;
51800;SDS011;37855;53.204;6.568;2023-04-25T14:29:29;7.63;;;1.90;;
51800;SDS011;37855;53.204;6.568;2023-04-25T14:31:55;5.73;;;1.77;;
51800;SDS011;37855;53.204;6.568;2023-04-25T14:34:22;7.32;;;1.70;;
51800;SDS011;37855;53.204;6.568;2023-04-25T14:36:48;7.32;;;1.80;;
51800;SDS011;37855;53.204;6.568;2023-04-25T14:39:14;7.17;;;2.00;;
51800;SDS011;37855;53.204;6.568;2023-04-25T14:41:39;4.70;;;1.50;;
51800;SDS011;37855;53.204;6.568;2023-04-25T14:44:05;9.33;;;1.67;;